sensor_id;sensor_type;location;lat;lon;timestamp;pressure;altitude;pressure_sealevel;temperature;humidity
21658;BME280;10990;48.174;9.782;2022-07-15T00:01:10;95785.97;;;21.35;100.00
21658;BME280;10990;48.174;9.782;2022-07-15T00:03:38;95770.72;;;21.09;100.00
21658;BME280;10990;48.174;9.782;2022-07-15T00:06:06;95755.59;;;21.21;100.00
21658;BME280;10990;48.174;9.782;2022-07-15T00:08:33;95724.66;;;20.98;100.00
21658;BME280;10990;48.174;9.782;2022-07-15T00:11:02;95698.75;;;21.11;100.00
21658;BME280;10990;48.174;9.782;2022-07-15T00:13:29;95709.44;;;21.24;100.00
21658;BME280;10990;48.174;9.782;2022-07-15T00:15:57;95724.69;;;21.37;100.00
21658;BME280;10990;48.174;9.782;2022-07-15T00:18:25;95713.00;;;21.11;100.00
21658;BME280;10990;48.174;9.782;2022-07-15T00:20:52;95697.53;;;21.00;100.00
21658;BME280;10990;48.174;9.782;2022-07-15T00:23:19;95691.69;;;21.16;100.00
21658;BME280;10990;48.174;9.782;2022-07-15T00:25:46;95685.34;;;20.97;100.00
21658;BME280;10990;48.174;9.782;2022-07-15T00:28:15;95674.78;;;21.02;100.00
21658;BME280;10990;48.174;9.782;2022-07-15T00:30:42;95659.69;;;21.01;100.00
21658;BME280;10990;48.174;9.782;2022-07-15T00:33:10;95672.75;;;20.91;100.00
21658;BME280;10990;48.174;9.782;2022-07-15T00:35:38;95688.22;;;21.09;100.00
21658;BME280;10990;48.174;9.782;2022-07-15T00:38:07;95727.28;;;21.12;100.00
21658;BME280;10990;48.174;9.782;2022-07-15T00:40:39;95750.16;;;20.89;100.00
21658;BME280;10990;48.174;9.782;2022-07-15T00:43:07;95727.59;;;20.90;100.00
21658;BME280;10990;48.174;9.782;2022-07-15T00:45:35;95715.81;;;20.85;100.00
21658;BME280;10990;48.174;9.782;2022-07-15T00:48:03;95715.50;;;20.61;100.00
21658;BME280;10990;48.174;9.782;2022-07-15T00:50:31;95704.69;;;20.74;100.00
21658;BME280;10990;48.174;9.782;2022-07-15T00:53:04;95708.22;;;20.68;100.00
21658;BME280;10990;48.174;9.782;2022-07-15T00:55:37;95694.38;;;20.58;100.00
21658;BME280;10990;48.174;9.782;2022-07-15T00:58:07;95698.31;;;20.49;100.00
21658;BME280;10990;48.174;9.782;2022-07-15T01:00:35;95721.47;;;20.63;100.00
21658;BME280;10990;48.174;9.782;2022-07-15T01:03:03;95732.38;;;20.81;100.00
21658;BME280;10990;48.174;9.782;2022-07-15T01:05:30;95725.34;;;20.74;100.00
21658;BME280;10990;48.174;9.782;2022-07-15T01:07:57;95718.69;;;20.83;100.00
21658;BME280;10990;48.174;9.782;2022-07-15T01:10:25;95705.97;;;20.58;100.00
21658;BME280;10990;48.174;9.782;2022-07-15T01:15:26;95706.00;;;20.19;100.00
21658;BME280;10990;48.174;9.782;2022-07-15T01:17:58;95706.03;;;20.05;100.00
21658;BME280;10990;48.174;9.782;2022-07-15T01:20:26;95704.78;;;20.01;100.00
21658;BME280;10990;48.174;9.782;2022-07-15T01:23:00;95706.25;;;20.10;100.00
21658;BME280;10990;48.174;9.782;2022-07-15T01:25:39;95714.91;;;20.12;100.00
21658;BME280;10990;48.174;9.782;2022-07-15T01:28:09;95719.47;;;20.05;100.00
21658;BME280;10990;48.174;9.782;2022-07-15T01:30:37;95728.53;;;19.98;100.00
21658;BME280;10990;48.174;9.782;2022-07-15T01:33:07;95751.69;;;20.25;100.00
21658;BME280;10990;48.174;9.782;2022-07-15T01:35:34;95753.31;;;20.13;100.00
21658;BME280;10990;48.174;9.782;2022-07-15T01:38:02;95745.25;;;20.13;100.00
21658;BME280;10990;48.174;9.782;2022-07-15T01:40:30;95746.69;;;20.15;100.00
21658;BME280;10990;48.174;9.782;2022-07-15T01:42:57;95727.94;;;20.02;100.00
21658;BME280;10990;48.174;9.782;2022-07-15T01:45:25;95738.88;;;19.94;100.00
21658;BME280;10990;48.174;9.782;2022-07-15T01:47:53;95752.47;;;19.66;100.00
21658;BME280;10990;48.174;9.782;2022-07-15T01:50:53;95779.25;;;19.59;100.00
21658;BME280;10990;48.174;9.782;2022-07-15T01:53:21;95806.88;;;19.53;100.00
21658;BME280;10990;48.174;9.782;2022-07-15T01:55:48;95813.06;;;19.54;100.00
21658;BME280;10990;48.174;9.782;2022-07-15T01:58:16;95833.88;;;19.45;100.00
21658;BME280;10990;48.174;9.782;2022-07-15T02:00:45;95835.44;;;19.19;100.00
21658;BME280;10990;48.174;9.782;2022-07-15T02:03:12;95844.66;;;19.03;100.00
21658;BME280;10990;48.174;9.782;2022-07-15T02:05:40;95837.66;;;19.09;100.00
21658;BME280;10990;48.174;9.782;2022-07-15T02:08:07;95837.81;;;19.01;100.00
21658;BME280;10990;48.174;9.782;2022-07-15T02:10:37;95839.44;;;18.95;100.00
21658;BME280;10990;48.174;9.782;2022-07-15T02:13:25;95835.16;;;19.01;100.00
21658;BME280;10990;48.174;9.782;2022-07-15T02:15:57;95835.19;;;19.14;100.00
21658;BME280;10990;48.174;9.782;2022-07-15T02:18:24;95838.94;;;18.78;100.00
21658;BME280;10990;48.174;9.782;2022-07-15T02:20:52;95822.56;;;18.73;100.00
21658;BME280;10990;48.174;9.782;2022-07-15T02:23:19;95814.69;;;18.65;100.00
21658;BME280;10990;48.174;9.782;2022-07-15T02:25:48;95815.31;;;18.67;100.00
21658;BME280;10990;48.174;9.782;2022-07-15T02:28:22;95820.06;;;18.72;100.00
21658;BME280;10990;48.174;9.782;2022-07-15T02:30:50;95827.88;;;18.67;100.00
21658;BME280;10990;48.174;9.782;2022-07-15T02:33:17;95825.41;;;18.65;100.00
21658;BME280;10990;48.174;9.782;2022-07-15T02:35:44;95825.06;;;18.75;100.00
21658;BME280;10990;48.174;9.782;2022-07-15T02:38:12;95817.50;;;18.78;100.00
21658;BME280;10990;48.174;9.782;2022-07-15T02:40:39;95814.94;;;18.70;100.00
21658;BME280;10990;48.174;9.782;2022-07-15T02:43:09;95809.66;;;18.55;100.00
21658;BME280;10990;48.174;9.782;2022-07-15T02:45:38;95813.41;;;18.61;100.00
21658;BME280;10990;48.174;9.782;2022-07-15T02:48:07;95818.97;;;18.88;100.00
21658;BME280;10990;48.174;9.782;2022-07-15T02:50:40;95825.97;;;18.82;100.00
21658;BME280;10990;48.174;9.782;2022-07-15T02:53:07;95836.56;;;18.97;100.00
21658;BME280;10990;48.174;9.782;2022-07-15T02:55:37;95830.53;;;18.88;100.00
21658;BME280;10990;48.174;9.782;2022-07-15T02:58:04;95830.09;;;18.85;100.00
21658;BME280;10990;48.174;9.782;2022-07-15T03:00:33;95819.66;;;18.96;100.00
21658;BME280;10990;48.174;9.782;2022-07-15T03:03:03;95810.78;;;18.96;100.00
21658;BME280;10990;48.174;9.782;2022-07-15T03:05:32;95797.97;;;18.91;100.00
21658;BME280;10990;48.174;9.782;2022-07-15T03:08:01;95801.63;;;18.84;100.00
21658;BME280;10990;48.174;9.782;2022-07-15T03:10:28;95759.53;;;18.43;100.00
21658;BME280;10990;48.174;9.782;2022-07-15T03:12:56;95709.09;;;18.18;100.00
21658;BME280;10990;48.174;9.782;2022-07-15T03:15:23;95649.22;;;17.69;100.00
21658;BME280;10990;48.174;9.782;2022-07-15T03:17:52;95576.03;;;17.77;100.00
21658;BME280;10990;48.174;9.782;2022-07-15T03:20:21;95575.84;;;17.79;100.00
21658;BME280;10990;48.174;9.782;2022-07-15T03:22:49;95585.75;;;17.85;100.00
21658;BME280;10990;48.174;9.782;2022-07-15T03:25:17;95589.31;;;17.64;100.00
21658;BME280;10990;48.174;9.782;2022-07-15T03:27:44;95585.53;;;17.52;100.00
21658;BME280;10990;48.174;9.782;2022-07-15T03:30:12;95606.41;;;17.91;100.00
21658;BME280;10990;48.174;9.782;2022-07-15T03:32:41;95610.25;;;18.17;100.00
21658;BME280;10990;48.174;9.782;2022-07-15T03:35:11;95608.91;;;18.34;100.00
21658;BME280;10990;48.174;9.782;2022-07-15T03:37:39;95587.00;;;18.24;100.00
21658;BME280;10990;48.174;9.782;2022-07-15T03:40:09;95582.28;;;18.26;100.00
21658;BME280;10990;48.174;9.782;2022-07-15T03:42:37;95557.63;;;17.96;100.00
21658;BME280;10990;48.174;9.782;2022-07-15T03:45:05;95532.97;;;18.00;100.00
21658;BME280;10990;48.174;9.782;2022-07-15T03:47:32;95514.25;;;18.07;100.00
21658;BME280;10990;48.174;9.782;2022-07-15T03:50:05;95535.13;;;18.25;100.00
21658;BME280;10990;48.174;9.782;2022-07-15T03:52:36;95549.13;;;18.27;100.00
21658;BME280;10990;48.174;9.782;2022-07-15T03:55:07;95568.09;;;18.32;100.00
21658;BME280;10990;48.174;9.782;2022-07-15T03:57:36;95548.81;;;18.02;100.00
21658;BME280;10990;48.174;9.782;2022-07-15T04:00:04;95494.63;;;17.93;100.00
21658;BME280;10990;48.174;9.782;2022-07-15T04:02:40;95460.19;;;17.77;100.00
21658;BME280;10990;48.174;9.782;2022-07-15T04:05:08;95428.66;;;17.72;100.00
21658;BME280;10990;48.174;9.782;2022-07-15T04:07:37;95422.72;;;17.77;100.00
21658;BME280;10990;48.174;9.782;2022-07-15T04:10:07;95396.16;;;17.68;100.00
21658;BME280;10990;48.174;9.782;2022-07-15T04:12:35;95366.09;;;17.60;100.00
21658;BME280;10990;48.174;9.782;2022-07-15T04:15:03;95367.25;;;17.44;100.00
21658;BME280;10990;48.174;9.782;2022-07-15T04:17:31;95356.00;;;17.62;100.00
21658;BME280;10990;48.174;9.782;2022-07-15T04:19:59;95370.50;;;17.81;100.00
21658;BME280;10990;48.174;9.782;2022-07-15T04:22:28;95394.25;;;18.10;100.00
21658;BME280;10990;48.174;9.782;2022-07-15T04:24:56;95413.22;;;18.35;100.00
21658;BME280;10990;48.174;9.782;2022-07-15T04:27:24;95434.59;;;18.09;100.00
21658;BME280;10990;48.174;9.782;2022-07-15T04:29:51;95393.00;;;18.13;100.00
21658;BME280;10990;48.174;9.782;2022-07-15T04:32:18;95362.31;;;18.02;100.00
21658;BME280;10990;48.174;9.782;2022-07-15T04:34:49;95340.88;;;17.89;100.00
21658;BME280;10990;48.174;9.782;2022-07-15T04:37:17;95333.47;;;18.04;100.00
21658;BME280;10990;48.174;9.782;2022-07-15T04:39:52;95332.03;;;18.02;100.00
21658;BME280;10990;48.174;9.782;2022-07-15T04:42:22;95348.59;;;17.64;100.00
21658;BME280;10990;48.174;9.782;2022-07-15T04:44:50;95344.63;;;18.08;100.00
21658;BME280;10990;48.174;9.782;2022-07-15T04:47:18;95343.19;;;18.05;100.00
21658;BME280;10990;48.174;9.782;2022-07-15T04:49:53;95350.00;;;18.28;100.00
21658;BME280;10990;48.174;9.782;2022-07-15T04:52:42;95369.94;;;18.12;100.00
21658;BME280;10990;48.174;9.782;2022-07-15T04:55:10;95373.25;;;18.60;100.00
21658;BME280;10990;48.174;9.782;2022-07-15T04:57:39;95427.25;;;18.51;100.00
21658;BME280;10990;48.174;9.782;2022-07-15T05:00:08;95470.78;;;18.93;100.00
21658;BME280;10990;48.174;9.782;2022-07-15T05:02:38;95502.13;;;19.19;100.00
21658;BME280;10990;48.174;9.782;2022-07-15T05:05:05;95536.78;;;19.40;100.00
21658;BME280;10990;48.174;9.782;2022-07-15T05:07:33;95571.41;;;19.42;100.00
21658;BME280;10990;48.174;9.782;2022-07-15T05:10:02;95582.56;;;19.39;100.00
21658;BME280;10990;48.174;9.782;2022-07-15T05:12:32;95590.22;;;19.35;100.00
21658;BME280;10990;48.174;9.782;2022-07-15T05:15:02;95578.00;;;19.59;100.00
21658;BME280;10990;48.174;9.782;2022-07-15T05:17:31;95625.69;;;19.97;100.00
21658;BME280;10990;48.174;9.782;2022-07-15T05:19:59;95687.84;;;20.14;100.00
21658;BME280;10990;48.174;9.782;2022-07-15T05:22:26;95764.91;;;20.33;100.00
21658;BME280;10990;48.174;9.782;2022-07-15T05:24:53;95798.16;;;20.46;100.00
21658;BME280;10990;48.174;9.782;2022-07-15T05:27:20;95832.03;;;20.93;100.00
21658;BME280;10990;48.174;9.782;2022-07-15T05:29:48;95856.69;;;20.70;100.00
21658;BME280;10990;48.174;9.782;2022-07-15T05:32:17;95855.63;;;20.71;100.00
21658;BME280;10990;48.174;9.782;2022-07-15T05:34:46;95889.97;;;20.89;100.00
21658;BME280;10990;48.174;9.782;2022-07-15T05:37:17;95902.91;;;21.32;100.00
21658;BME280;10990;48.174;9.782;2022-07-15T05:39:44;95930.66;;;21.19;100.00
21658;BME280;10990;48.174;9.782;2022-07-15T05:42:26;95945.16;;;21.18;100.00
21658;BME280;10990;48.174;9.782;2022-07-15T05:44:53;95951.81;;;20.89;100.00
21658;BME280;10990;48.174;9.782;2022-07-15T05:47:23;95960.88;;;21.21;100.00
21658;BME280;10990;48.174;9.782;2022-07-15T05:49:51;95966.44;;;21.40;100.00
21658;BME280;10990;48.174;9.782;2022-07-15T05:52:18;95978.34;;;21.84;100.00
21658;BME280;10990;48.174;9.782;2022-07-15T05:54:46;95981.47;;;21.81;100.00
21658;BME280;10990;48.174;9.782;2022-07-15T05:57:14;95985.50;;;22.10;100.00
21658;BME280;10990;48.174;9.782;2022-07-15T05:59:41;95995.78;;;22.40;100.00
21658;BME280;10990;48.174;9.782;2022-07-15T06:02:08;95994.81;;;22.14;100.00
21658;BME280;10990;48.174;9.782;2022-07-15T06:04:38;96003.00;;;21.87;100.00
21658;BME280;10990;48.174;9.782;2022-07-15T06:07:06;96010.50;;;21.72;100.00
21658;BME280;10990;48.174;9.782;2022-07-15T06:09:34;96015.88;;;21.79;100.00
21658;BME280;10990;48.174;9.782;2022-07-15T06:12:04;96019.13;;;22.52;100.00
21658;BME280;10990;48.174;9.782;2022-07-15T06:14:31;96031.59;;;22.47;100.00
21658;BME280;10990;48.174;9.782;2022-07-15T06:17:04;96042.13;;;22.55;100.00
21658;BME280;10990;48.174;9.782;2022-07-15T06:19:32;96042.66;;;22.32;100.00
21658;BME280;10990;48.174;9.782;2022-07-15T06:22:02;96039.03;;;23.21;100.00
21658;BME280;10990;48.174;9.782;2022-07-15T06:24:30;96044.19;;;23.30;100.00
21658;BME280;10990;48.174;9.782;2022-07-15T06:26:59;96039.03;;;22.90;100.00
21658;BME280;10990;48.174;9.782;2022-07-15T06:29:27;96052.50;;;22.96;100.00
21658;BME280;10990;48.174;9.782;2022-07-15T06:31:54;96052.75;;;22.50;100.00
21658;BME280;10990;48.174;9.782;2022-07-15T06:34:22;96061.81;;;22.94;100.00
21658;BME280;10990;48.174;9.782;2022-07-15T06:36:56;96049.44;;;22.41;100.00
21658;BME280;10990;48.174;9.782;2022-07-15T06:39:25;96049.03;;;23.46;100.00
21658;BME280;10990;48.174;9.782;2022-07-15T06:41:53;96057.16;;;22.76;100.00
21658;BME280;10990;48.174;9.782;2022-07-15T06:44:22;96052.91;;;23.25;100.00
21658;BME280;10990;48.174;9.782;2022-07-15T06:46:54;96057.75;;;24.10;100.00
21658;BME280;10990;48.174;9.782;2022-07-15T06:49:21;96053.78;;;23.94;100.00
21658;BME280;10990;48.174;9.782;2022-07-15T06:51:52;96052.81;;;24.07;100.00
21658;BME280;10990;48.174;9.782;2022-07-15T06:54:19;96037.56;;;24.49;99.49
21658;BME280;10990;48.174;9.782;2022-07-15T06:56:49;96042.53;;;24.82;96.18
21658;BME280;10990;48.174;9.782;2022-07-15T07:08:29;96033.06;;;25.45;92.98
21658;BME280;10990;48.174;9.782;2022-07-15T07:10:56;96036.34;;;25.59;91.46
21658;BME280;10990;48.174;9.782;2022-07-15T07:13:24;96039.75;;;25.31;92.51
21658;BME280;10990;48.174;9.782;2022-07-15T07:15:52;96033.84;;;25.22;92.04
21658;BME280;10990;48.174;9.782;2022-07-15T07:18:21;96036.97;;;25.61;92.61
21658;BME280;10990;48.174;9.782;2022-07-15T07:20:48;96038.38;;;25.52;91.43
21658;BME280;10990;48.174;9.782;2022-07-15T07:23:16;96034.38;;;26.13;88.63
21658;BME280;10990;48.174;9.782;2022-07-15T07:25:43;96042.69;;;25.30;90.27
21658;BME280;10990;48.174;9.782;2022-07-15T07:28:11;96038.59;;;26.73;87.67
21658;BME280;10990;48.174;9.782;2022-07-15T07:30:41;96028.44;;;27.93;81.28
21658;BME280;10990;48.174;9.782;2022-07-15T07:33:08;96028.13;;;28.12;78.73
21658;BME280;10990;48.174;9.782;2022-07-15T07:35:35;96033.19;;;27.19;84.04
21658;BME280;10990;48.174;9.782;2022-07-15T07:38:03;96027.69;;;27.47;85.02
21658;BME280;10990;48.174;9.782;2022-07-15T07:40:31;96035.28;;;26.71;84.34
21658;BME280;10990;48.174;9.782;2022-07-15T07:42:59;96034.69;;;26.69;84.18
21658;BME280;10990;48.174;9.782;2022-07-15T07:45:27;96038.72;;;26.95;83.31
21658;BME280;10990;48.174;9.782;2022-07-15T07:48:00;96024.50;;;27.05;79.49
21658;BME280;10990;48.174;9.782;2022-07-15T07:50:28;96034.78;;;26.74;84.75
21658;BME280;10990;48.174;9.782;2022-07-15T07:52:55;96020.44;;;27.53;79.37
21658;BME280;10990;48.174;9.782;2022-07-15T07:55:24;96024.97;;;27.47;77.33
21658;BME280;10990;48.174;9.782;2022-07-15T07:57:56;96031.31;;;26.91;78.26
21658;BME280;10990;48.174;9.782;2022-07-15T08:00:24;96015.34;;;27.23;76.51
21658;BME280;10990;48.174;9.782;2022-07-15T08:02:54;96032.81;;;26.70;75.58
21658;BME280;10990;48.174;9.782;2022-07-15T08:05:23;96018.13;;;28.83;72.28
21658;BME280;10990;48.174;9.782;2022-07-15T08:08:06;96022.72;;;27.78;74.16
21658;BME280;10990;48.174;9.782;2022-07-15T08:10:40;96020.97;;;28.06;67.55
21658;BME280;10990;48.174;9.782;2022-07-15T08:13:09;96019.91;;;28.29;69.66
21658;BME280;10990;48.174;9.782;2022-07-15T08:15:38;96018.38;;;28.38;66.21
21658;BME280;10990;48.174;9.782;2022-07-15T08:18:06;96016.28;;;28.23;65.85
21658;BME280;10990;48.174;9.782;2022-07-15T08:20:36;96019.00;;;28.01;67.44
21658;BME280;10990;48.174;9.782;2022-07-15T08:23:04;96007.00;;;28.63;65.81
21658;BME280;10990;48.174;9.782;2022-07-15T08:25:34;96015.25;;;28.46;66.11
21658;BME280;10990;48.174;9.782;2022-07-15T08:28:02;96013.84;;;29.20;63.51
21658;BME280;10990;48.174;9.782;2022-07-15T08:30:32;96011.59;;;28.41;66.30
21658;BME280;10990;48.174;9.782;2022-07-15T08:33:02;96015.16;;;28.63;65.81
21658;BME280;10990;48.174;9.782;2022-07-15T08:35:30;96019.59;;;29.88;60.11
21658;BME280;10990;48.174;9.782;2022-07-15T08:38:03;96012.72;;;28.89;62.45
21658;BME280;10990;48.174;9.782;2022-07-15T08:40:31;96017.34;;;28.61;67.17
21658;BME280;10990;48.174;9.782;2022-07-15T08:42:58;96017.81;;;28.36;67.11
21658;BME280;10990;48.174;9.782;2022-07-15T08:45:26;96012.13;;;30.21;57.38
21658;BME280;10990;48.174;9.782;2022-07-15T08:47:55;96009.47;;;30.26;57.19
21658;BME280;10990;48.174;9.782;2022-07-15T08:50:24;96012.84;;;29.31;55.46
21658;BME280;10990;48.174;9.782;2022-07-15T08:52:54;96003.63;;;30.12;54.91
21658;BME280;10990;48.174;9.782;2022-07-15T08:55:22;96000.72;;;31.99;50.91
21658;BME280;10990;48.174;9.782;2022-07-15T08:57:52;96005.91;;;31.14;50.01
21658;BME280;10990;48.174;9.782;2022-07-15T09:00:20;96007.56;;;31.30;50.23
21658;BME280;10990;48.174;9.782;2022-07-15T09:02:55;96006.84;;;30.56;56.32
21658;BME280;10990;48.174;9.782;2022-07-15T09:05:26;96004.75;;;29.68;53.10
21658;BME280;10990;48.174;9.782;2022-07-15T09:08:04;96008.34;;;28.88;56.00
21658;BME280;10990;48.174;9.782;2022-07-15T09:10:46;96010.13;;;29.31;54.95
21658;BME280;10990;48.174;9.782;2022-07-15T09:13:23;96003.41;;;29.07;58.73
21658;BME280;10990;48.174;9.782;2022-07-15T09:15:53;96001.00;;;30.32;54.28
21658;BME280;10990;48.174;9.782;2022-07-15T09:18:22;96005.63;;;30.27;51.93
21658;BME280;10990;48.174;9.782;2022-07-15T09:20:51;95990.94;;;31.37;51.95
21658;BME280;10990;48.174;9.782;2022-07-15T09:23:24;95999.38;;;31.56;51.43
21658;BME280;10990;48.174;9.782;2022-07-15T09:25:59;96005.94;;;31.09;54.23
21658;BME280;10990;48.174;9.782;2022-07-15T09:28:38;96010.16;;;28.77;60.62
21658;BME280;10990;48.174;9.782;2022-07-15T09:31:05;96002.69;;;28.67;60.29
21658;BME280;10990;48.174;9.782;2022-07-15T09:33:51;96014.53;;;28.34;62.33
21658;BME280;10990;48.174;9.782;2022-07-15T09:36:26;96001.56;;;28.63;63.46
21658;BME280;10990;48.174;9.782;2022-07-15T09:38:56;96007.41;;;28.50;66.86
21658;BME280;10990;48.174;9.782;2022-07-15T09:41:31;96019.16;;;27.10;67.72
21658;BME280;10990;48.174;9.782;2022-07-15T09:44:01;96013.94;;;27.71;67.74
21658;BME280;10990;48.174;9.782;2022-07-15T09:46:39;96008.13;;;28.23;65.13
21658;BME280;10990;48.174;9.782;2022-07-15T09:49:07;95999.06;;;29.75;58.88
21658;BME280;10990;48.174;9.782;2022-07-15T09:51:43;96000.47;;;30.30;59.49
21658;BME280;10990;48.174;9.782;2022-07-15T09:54:12;96000.44;;;30.25;62.58
21658;BME280;10990;48.174;9.782;2022-07-15T09:56:40;96000.16;;;30.27;55.99
21658;BME280;10990;48.174;9.782;2022-07-15T09:59:08;96002.97;;;29.89;62.42
21658;BME280;10990;48.174;9.782;2022-07-15T10:01:36;96013.72;;;28.33;64.32
21658;BME280;10990;48.174;9.782;2022-07-15T10:04:03;96011.22;;;27.88;69.36
21658;BME280;10990;48.174;9.782;2022-07-15T10:06:32;96014.19;;;28.08;69.25
21658;BME280;10990;48.174;9.782;2022-07-15T10:09:04;96013.19;;;28.14;69.23
21658;BME280;10990;48.174;9.782;2022-07-15T10:11:33;96017.13;;;28.24;65.89
21658;BME280;10990;48.174;9.782;2022-07-15T10:14:21;96013.94;;;29.62;57.87
21658;BME280;10990;48.174;9.782;2022-07-15T10:17:02;96006.50;;;30.37;58.47
21658;BME280;10990;48.174;9.782;2022-07-15T10:19:52;96013.22;;;29.40;57.56
21658;BME280;10990;48.174;9.782;2022-07-15T10:22:33;96014.03;;;28.86;59.13
21658;BME280;10990;48.174;9.782;2022-07-15T10:25:15;96010.41;;;29.30;62.65
21658;BME280;10990;48.174;9.782;2022-07-15T10:27:57;96000.00;;;29.96;62.56
21658;BME280;10990;48.174;9.782;2022-07-15T10:30:28;96003.78;;;29.90;58.51
21658;BME280;10990;48.174;9.782;2022-07-15T10:33:07;96007.41;;;29.31;58.82
21658;BME280;10990;48.174;9.782;2022-07-15T10:35:38;96001.91;;;28.72;63.86
21658;BME280;10990;48.174;9.782;2022-07-15T10:38:30;95994.78;;;29.52;68.20
21658;BME280;10990;48.174;9.782;2022-07-15T10:40:59;95992.50;;;27.91;63.72
21658;BME280;10990;48.174;9.782;2022-07-15T10:43:39;95988.63;;;27.70;68.37
21658;BME280;10990;48.174;9.782;2022-07-15T10:46:19;95986.59;;;27.44;73.11
21658;BME280;10990;48.174;9.782;2022-07-15T10:48:49;95985.09;;;28.75;68.20
21658;BME280;10990;48.174;9.782;2022-07-15T10:51:44;95994.41;;;28.57;63.74
21658;BME280;10990;48.174;9.782;2022-07-15T10:54:38;95978.00;;;29.70;66.08
21658;BME280;10990;48.174;9.782;2022-07-15T10:57:06;95973.22;;;29.88;58.96
21658;BME280;10990;48.174;9.782;2022-07-15T10:59:36;95963.31;;;29.71;63.82
21658;BME280;10990;48.174;9.782;2022-07-15T11:02:16;95963.66;;;29.43;69.46
21658;BME280;10990;48.174;9.782;2022-07-15T11:04:44;95961.81;;;29.96;58.93
21658;BME280;10990;48.174;9.782;2022-07-15T11:07:28;95961.59;;;28.69;59.72
21658;BME280;10990;48.174;9.782;2022-07-15T11:10:11;95956.66;;;29.57;60.95
21658;BME280;10990;48.174;9.782;2022-07-15T11:13:01;95945.22;;;29.60;64.88
21658;BME280;10990;48.174;9.782;2022-07-15T11:15:29;95951.00;;;28.99;55.15
21658;BME280;10990;48.174;9.782;2022-07-15T11:17:58;95954.41;;;28.85;64.34
21658;BME280;10990;48.174;9.782;2022-07-15T11:20:31;95947.06;;;29.49;63.23
21658;BME280;10990;48.174;9.782;2022-07-15T11:23:00;95940.75;;;29.44;58.06
21658;BME280;10990;48.174;9.782;2022-07-15T11:25:30;95934.00;;;28.11;58.21
21658;BME280;10990;48.174;9.782;2022-07-15T11:28:01;95938.91;;;27.53;58.62
21658;BME280;10990;48.174;9.782;2022-07-15T11:30:31;95941.00;;;28.07;61.70
21658;BME280;10990;48.174;9.782;2022-07-15T11:33:03;95941.06;;;28.56;58.11
21658;BME280;10990;48.174;9.782;2022-07-15T11:35:31;95934.13;;;29.02;61.13
21658;BME280;10990;48.174;9.782;2022-07-15T11:38:10;95930.03;;;29.69;58.51
21658;BME280;10990;48.174;9.782;2022-07-15T11:40:42;95924.69;;;29.10;50.20
21658;BME280;10990;48.174;9.782;2022-07-15T11:43:28;95924.84;;;29.63;55.35
21658;BME280;10990;48.174;9.782;2022-07-15T11:46:13;95924.59;;;29.69;52.97
21658;BME280;10990;48.174;9.782;2022-07-15T11:48:43;95925.75;;;29.84;55.22
21658;BME280;10990;48.174;9.782;2022-07-15T11:51:11;95921.09;;;29.84;52.87
21658;BME280;10990;48.174;9.782;2022-07-15T11:53:41;95915.88;;;29.73;54.88
21658;BME280;10990;48.174;9.782;2022-07-15T11:56:10;95908.19;;;29.64;55.66
21658;BME280;10990;48.174;9.782;2022-07-15T11:58:40;95921.31;;;29.30;56.47
21658;BME280;10990;48.174;9.782;2022-07-15T12:01:09;95917.66;;;29.52;62.04
21658;BME280;10990;48.174;9.782;2022-07-15T12:03:39;95908.63;;;29.46;56.34
21658;BME280;10990;48.174;9.782;2022-07-15T12:06:11;95917.50;;;29.31;57.75
21658;BME280;10990;48.174;9.782;2022-07-15T12:08:42;95907.66;;;29.67;58.12
21658;BME280;10990;48.174;9.782;2022-07-15T12:11:14;95916.38;;;29.64;59.77
21658;BME280;10990;48.174;9.782;2022-07-15T12:13:44;95916.44;;;29.75;59.26
21658;BME280;10990;48.174;9.782;2022-07-15T12:16:13;95915.47;;;29.96;58.56
21658;BME280;10990;48.174;9.782;2022-07-15T12:18:46;95907.97;;;29.29;56.92
21658;BME280;10990;48.174;9.782;2022-07-15T12:21:16;95912.47;;;27.82;56.30
21658;BME280;10990;48.174;9.782;2022-07-15T12:24:02;95908.75;;;27.33;61.96
21658;BME280;10990;48.174;9.782;2022-07-15T12:26:30;95902.75;;;28.41;65.63
21658;BME280;10990;48.174;9.782;2022-07-15T12:28:59;95900.81;;;28.09;61.04
21658;BME280;10990;48.174;9.782;2022-07-15T12:31:28;95896.44;;;28.57;62.57
21658;BME280;10990;48.174;9.782;2022-07-15T12:33:55;95899.19;;;28.89;67.77
21658;BME280;10990;48.174;9.782;2022-07-15T12:36:25;95903.25;;;28.92;62.05
21658;BME280;10990;48.174;9.782;2022-07-15T12:39:05;95898.81;;;29.50;57.42
21658;BME280;10990;48.174;9.782;2022-07-15T12:41:34;95906.44;;;28.78;56.06
21658;BME280;10990;48.174;9.782;2022-07-15T12:44:03;95912.00;;;29.21;55.00
21658;BME280;10990;48.174;9.782;2022-07-15T12:46:52;95911.13;;;28.56;53.44
21658;BME280;10990;48.174;9.782;2022-07-15T12:49:40;95907.78;;;28.76;58.46
21658;BME280;10990;48.174;9.782;2022-07-15T12:52:16;95905.63;;;28.29;59.58
21658;BME280;10990;48.174;9.782;2022-07-15T12:54:43;95912.53;;;27.70;60.37
21658;BME280;10990;48.174;9.782;2022-07-15T12:57:22;95903.28;;;27.88;61.65
21658;BME280;10990;48.174;9.782;2022-07-15T12:59:51;95906.00;;;28.59;61.10
21658;BME280;10990;48.174;9.782;2022-07-15T13:02:20;95901.06;;;28.83;58.72
21658;BME280;10990;48.174;9.782;2022-07-15T13:04:48;95902.16;;;28.33;57.12
21658;BME280;10990;48.174;9.782;2022-07-15T13:07:17;95902.19;;;28.60;63.92
21658;BME280;10990;48.174;9.782;2022-07-15T13:09:45;95901.44;;;29.02;62.42
21658;BME280;10990;48.174;9.782;2022-07-15T13:12:13;95904.31;;;29.13;62.39
21658;BME280;10990;48.174;9.782;2022-07-15T13:14:41;95902.34;;;29.08;61.82
21658;BME280;10990;48.174;9.782;2022-07-15T13:17:09;95896.28;;;29.01;60.34
21658;BME280;10990;48.174;9.782;2022-07-15T13:19:38;95895.19;;;29.02;57.18
21658;BME280;10990;48.174;9.782;2022-07-15T13:22:05;95886.25;;;28.74;56.50
21658;BME280;10990;48.174;9.782;2022-07-15T13:24:35;95889.97;;;28.95;65.43